Terminal Aerodrome Forecast
Issued by NWS

Home | Current Version | Previous Version | Graphics & Text | Print | Product List | Glossary On
Versions: 1 2 3 4 5 6 7 8 9 10 11 12 13 14
000
FTUS43 KBIS 162330
TAFDIK
TAF
KDIK 162330Z 1700/1724 04007KT P6SM SKC
     FM170400 13006KT P6SM FEW200
     FM170500 VRB05KT P6SM SKC
     FM172000 29013KT P6SM -SHRA VCTS SCT090CB=

USA.gov is the U.S. government's official web portal to all federal, state and local government web resources and services.